createdAt,value
2018-07-25T00:01:47.984Z,5.93
2018-07-25T00:04:16.429Z,8.07
2018-07-25T00:06:44.766Z,5.23
2018-07-25T00:09:13.080Z,6.40
2018-07-25T00:11:41.430Z,7.93
2018-07-25T00:14:09.771Z,5.97
2018-07-25T00:16:38.091Z,6.33
2018-07-25T00:19:06.457Z,5.67
2018-07-25T00:21:34.800Z,7.77
2018-07-25T00:24:03.153Z,4.50
2018-07-25T00:26:31.567Z,7.50
2018-07-25T00:28:59.863Z,8.27
2018-07-25T00:31:28.220Z,6.60
2018-07-25T00:33:56.535Z,5.27
2018-07-25T00:36:24.927Z,7.43
2018-07-25T00:38:53.209Z,7.43
2018-07-25T00:41:21.540Z,7.53
2018-07-25T00:43:49.849Z,6.80
2018-07-25T00:46:18.400Z,5.73
2018-07-25T00:48:46.729Z,5.30
2018-07-25T00:51:15.050Z,4.67
2018-07-25T00:53:43.385Z,7.13
2018-07-25T00:56:11.704Z,6.37
2018-07-25T00:58:40.028Z,5.87
2018-07-25T01:01:08.368Z,6.17
2018-07-25T01:03:36.708Z,7.90
2018-07-25T01:06:05.083Z,7.53
2018-07-25T01:08:33.400Z,7.60
2018-07-25T01:11:01.740Z,5.13
2018-07-25T01:13:30.057Z,8.87
2018-07-25T01:15:58.383Z,6.07
2018-07-25T01:18:26.729Z,9.83
2018-07-25T01:20:55.036Z,9.20
2018-07-25T01:23:23.383Z,7.50
2018-07-25T01:25:51.740Z,6.57
2018-07-25T01:28:20.051Z,9.20
2018-07-25T01:30:48.365Z,8.60
2018-07-25T01:33:16.708Z,9.07
2018-07-25T01:35:45.055Z,7.37
2018-07-25T01:38:13.363Z,7.67
2018-07-25T01:40:41.844Z,7.17
2018-07-25T01:43:10.156Z,9.23
2018-07-25T01:45:38.500Z,7.77
2018-07-25T01:48:07.046Z,9.07
2018-07-25T01:50:35.347Z,9.03
2018-07-25T01:53:03.673Z,6.97
2018-07-25T01:55:32.024Z,6.43
2018-07-25T01:58:00.364Z,7.20
2018-07-25T02:00:28.691Z,9.37
2018-07-25T02:02:57.024Z,9.23
2018-07-25T02:05:25.352Z,9.73
2018-07-25T02:07:53.723Z,11.20
2018-07-25T02:10:22.039Z,15.30
2018-07-25T02:12:50.350Z,12.93
2018-07-25T02:15:18.663Z,13.77
2018-07-25T02:17:46.984Z,7.20
2018-07-25T02:20:15.322Z,9.57
2018-07-25T02:22:43.709Z,8.20
2018-07-25T02:25:12.057Z,12.93
2018-07-25T02:27:40.388Z,11.23
2018-07-25T02:30:08.779Z,15.03
2018-07-25T02:32:37.089Z,14.47
2018-07-25T02:35:05.486Z,9.73
2018-07-25T02:37:33.812Z,10.53
2018-07-25T02:40:02.150Z,8.37
2018-07-25T02:42:30.472Z,7.07
2018-07-25T02:44:58.844Z,11.53
2018-07-25T02:47:27.193Z,10.97
2018-07-25T02:49:55.503Z,13.43
2018-07-25T02:52:23.810Z,8.50
2018-07-25T02:54:52.159Z,10.60
2018-07-25T02:57:20.506Z,10.17
2018-07-25T02:59:48.847Z,7.50
2018-07-25T03:02:17.194Z,9.47
2018-07-25T03:04:45.540Z,8.63
2018-07-25T03:07:13.904Z,9.73
2018-07-25T03:09:42.231Z,7.77
2018-07-25T03:12:10.553Z,9.30
2018-07-25T03:14:38.881Z,9.63
2018-07-25T03:17:07.228Z,9.60
2018-07-25T03:19:35.645Z,7.87
2018-07-25T03:22:03.960Z,9.53
2018-07-25T03:24:32.277Z,11.57
2018-07-25T03:27:00.609Z,9.47
2018-07-25T03:29:28.954Z,8.37
2018-07-25T03:31:57.300Z,10.07
2018-07-25T03:34:25.639Z,8.67
2018-07-25T03:36:53.971Z,8.70
2018-07-25T03:39:22.292Z,15.37
2018-07-25T03:41:50.647Z,9.50
2018-07-25T03:44:18.988Z,9.97
2018-07-25T03:46:47.300Z,7.67
2018-07-25T03:49:15.643Z,8.33
2018-07-25T03:51:43.984Z,11.47
2018-07-25T03:54:12.323Z,13.07
2018-07-25T03:56:40.680Z,7.10
2018-07-25T03:59:08.992Z,8.63
2018-07-25T04:01:37.336Z,7.73
2018-07-25T04:04:05.687Z,8.10
2018-07-25T04:06:34.031Z,8.57
2018-07-25T04:09:02.399Z,8.13
2018-07-25T04:11:30.748Z,11.73
2018-07-25T04:13:59.063Z,9.63
2018-07-25T04:16:27.440Z,10.67
2018-07-25T04:18:55.769Z,7.73
2018-07-25T04:21:24.102Z,8.33
2018-07-25T04:23:52.429Z,7.70
2018-07-25T04:26:20.752Z,9.53
2018-07-25T04:28:49.082Z,8.90
2018-07-25T04:31:17.436Z,9.93
2018-07-25T04:33:45.774Z,9.03
2018-07-25T04:36:14.120Z,12.43
2018-07-25T04:38:42.476Z,9.57
2018-07-25T04:41:11.003Z,13.20
2018-07-25T04:43:39.337Z,13.17
2018-07-25T04:46:07.703Z,6.50
2018-07-25T04:48:36.015Z,10.57
2018-07-25T04:51:04.322Z,8.43
2018-07-25T04:53:32.642Z,8.53
2018-07-25T04:56:01.128Z,11.57
2018-07-25T04:58:29.820Z,8.77
2018-07-25T05:00:59.006Z,7.20
2018-07-25T05:03:27.696Z,9.13
2018-07-25T05:05:56.047Z,8.47
2018-07-25T05:08:24.381Z,8.27
2018-07-25T05:10:52.729Z,9.00
2018-07-25T05:13:21.062Z,9.73
2018-07-25T05:15:49.394Z,8.90
2018-07-25T05:18:17.767Z,8.53
2018-07-25T05:20:46.119Z,8.07
2018-07-25T05:23:14.515Z,7.90
2018-07-25T05:25:42.880Z,9.57
2018-07-25T05:28:11.202Z,9.03
2018-07-25T05:30:39.532Z,7.87
2018-07-25T05:33:07.877Z,8.03
2018-07-25T05:35:36.239Z,6.00
2018-07-25T05:38:04.671Z,8.27
2018-07-25T05:40:32.990Z,7.87
2018-07-25T05:43:01.344Z,8.80
2018-07-25T05:45:29.835Z,9.60
2018-07-25T05:47:58.155Z,6.70
2018-07-25T05:50:26.499Z,6.47
2018-07-25T05:52:55.705Z,8.00
2018-07-25T05:55:24.076Z,6.27
2018-07-25T05:57:52.367Z,9.33
2018-07-25T06:00:20.696Z,9.27
2018-07-25T06:02:49.133Z,8.67
2018-07-25T06:05:17.412Z,12.43
2018-07-25T06:07:45.752Z,7.33
2018-07-25T06:10:14.110Z,12.10
2018-07-25T06:12:42.740Z,9.97
2018-07-25T06:15:11.075Z,6.37
2018-07-25T06:17:39.431Z,9.37
2018-07-25T06:20:08.753Z,18.73
2018-07-25T06:22:37.233Z,10.87
2018-07-25T06:25:05.579Z,4.73
2018-07-25T06:27:33.956Z,4.43
2018-07-25T06:30:02.439Z,6.03
2018-07-25T06:32:30.853Z,3.77
2018-07-25T06:34:59.182Z,6.37
2018-07-25T06:37:27.558Z,5.73
2018-07-25T06:39:55.941Z,6.37
2018-07-25T06:42:24.294Z,7.22
2018-07-25T06:44:52.644Z,5.22
2018-07-25T06:47:21.023Z,4.85
2018-07-25T06:49:49.353Z,5.62
2018-07-25T06:52:17.690Z,4.45
2018-07-25T06:54:46.024Z,5.40
2018-07-25T06:57:14.477Z,6.78
2018-07-25T06:59:42.768Z,5.20
2018-07-25T07:02:11.294Z,6.50
2018-07-25T07:04:39.664Z,3.92
2018-07-25T07:07:08.032Z,8.05
2018-07-25T07:09:36.365Z,6.58
2018-07-25T07:12:04.764Z,6.10
2018-07-25T07:14:33.099Z,8.88
2018-07-25T07:17:01.471Z,9.08
2018-07-25T07:19:29.801Z,6.90
2018-07-25T07:21:58.147Z,4.90
2018-07-25T07:24:26.459Z,6.12
2018-07-25T07:26:54.815Z,6.95
2018-07-25T07:29:23.147Z,7.92
2018-07-25T07:31:51.481Z,5.53
2018-07-25T07:34:19.823Z,5.35
2018-07-25T07:36:48.165Z,7.45
2018-07-25T07:39:16.496Z,7.28
2018-07-25T07:41:44.853Z,7.33
2018-07-25T07:44:13.299Z,7.50
2018-07-25T07:46:41.649Z,8.50
2018-07-25T07:49:09.982Z,7.55
2018-07-25T07:51:38.321Z,7.58
2018-07-25T07:54:06.719Z,9.15
2018-07-25T07:56:35.060Z,9.65
2018-07-25T07:59:03.446Z,9.58
2018-07-25T08:01:31.768Z,10.28
2018-07-25T08:04:00.101Z,12.00
2018-07-25T08:06:28.515Z,12.53
2018-07-25T08:08:56.885Z,14.07
2018-07-25T08:11:25.233Z,15.50
2018-07-25T08:13:53.608Z,16.85
2018-07-25T08:16:21.947Z,19.02
2018-07-25T08:18:50.315Z,17.20
2018-07-25T08:21:18.677Z,20.15
2018-07-25T08:23:47.011Z,20.12
2018-07-25T08:26:15.332Z,20.80
2018-07-25T08:28:43.681Z,21.40
2018-07-25T08:31:12.049Z,18.85
2018-07-25T08:33:40.387Z,20.20
2018-07-25T08:36:08.731Z,18.62
2018-07-25T08:38:42.418Z,15.63
2018-07-25T08:41:10.830Z,13.20
2018-07-25T08:43:40.408Z,13.53
2018-07-25T08:46:09.707Z,11.83
2018-07-25T08:48:38.583Z,12.15
2018-07-25T08:51:07.146Z,11.12
2018-07-25T08:53:35.960Z,8.98
2018-07-25T08:56:04.315Z,6.35
2018-07-25T08:58:32.640Z,4.72
2018-07-25T09:01:01.513Z,7.37
2018-07-25T09:03:29.861Z,7.58
2018-07-25T09:05:58.197Z,10.85
2018-07-25T09:08:26.573Z,6.92
2018-07-25T09:10:54.935Z,9.70
2018-07-25T09:13:23.513Z,10.00
2018-07-25T09:15:51.888Z,10.98
2018-07-25T09:18:20.218Z,12.33
2018-07-25T09:20:48.666Z,10.23
2018-07-25T09:23:17.012Z,7.95
2018-07-25T09:25:45.370Z,6.62
2018-07-25T09:28:13.697Z,5.50
2018-07-25T09:30:42.065Z,5.85
2018-07-25T09:33:10.420Z,6.47
2018-07-25T09:35:38.772Z,5.00
2018-07-25T09:38:07.149Z,4.28
2018-07-25T09:40:35.518Z,5.00
2018-07-25T09:43:03.908Z,5.53
2018-07-25T09:45:32.314Z,4.80
2018-07-25T09:48:00.679Z,5.40
2018-07-25T09:50:29.028Z,3.80
2018-07-25T09:52:57.486Z,3.47
2018-07-25T09:55:25.786Z,6.47
2018-07-25T09:57:54.150Z,4.50
2018-07-25T10:00:27.801Z,2.40
2018-07-25T10:02:56.148Z,4.28
2018-07-25T10:05:24.540Z,4.40
2018-07-25T10:07:52.930Z,3.35
2018-07-25T10:10:21.302Z,3.83
2018-07-25T10:12:49.698Z,5.03
2018-07-25T10:15:18.120Z,3.50
2018-07-25T10:17:46.441Z,4.65
2018-07-25T10:20:14.834Z,4.05
2018-07-25T10:22:43.238Z,5.67
2018-07-25T10:25:11.577Z,4.55
2018-07-25T10:27:39.955Z,5.20
2018-07-25T10:30:08.351Z,4.42
2018-07-25T10:32:36.685Z,4.95
2018-07-25T10:35:05.092Z,5.08
2018-07-25T10:37:33.455Z,6.85
2018-07-25T10:40:01.834Z,5.97
2018-07-25T10:42:30.292Z,7.50
2018-07-25T10:44:58.625Z,5.92
2018-07-25T10:47:26.985Z,2.87
2018-07-25T10:49:55.314Z,3.35
2018-07-25T10:52:23.758Z,4.00
2018-07-25T10:54:52.087Z,4.90
2018-07-25T10:57:20.468Z,6.55
2018-07-25T10:59:48.839Z,4.97
2018-07-25T11:02:17.251Z,3.22
2018-07-25T11:04:45.572Z,8.85
2018-07-25T11:07:13.930Z,6.37
2018-07-25T11:09:42.378Z,4.85
2018-07-25T11:12:10.777Z,3.85
2018-07-25T11:14:39.127Z,4.47
2018-07-25T11:17:07.500Z,4.47
2018-07-25T11:19:35.853Z,5.08
2018-07-25T11:22:04.279Z,4.35
2018-07-25T11:24:32.644Z,4.60
2018-07-25T11:27:01.404Z,3.60
2018-07-25T11:29:29.824Z,3.80
2018-07-25T11:31:58.175Z,3.00
2018-07-25T11:34:26.520Z,3.42
2018-07-25T11:36:54.838Z,3.50
2018-07-25T11:39:23.195Z,9.03
2018-07-25T11:41:51.554Z,3.92
2018-07-25T11:44:19.892Z,5.55
2018-07-25T11:46:48.303Z,4.25
2018-07-25T11:49:16.682Z,4.20
2018-07-25T11:51:45.011Z,7.63
2018-07-25T11:54:13.409Z,3.67
2018-07-25T11:56:42.610Z,5.30
2018-07-25T11:59:11.017Z,6.50
2018-07-25T12:01:39.399Z,5.90
2018-07-25T12:04:07.734Z,5.50
2018-07-25T12:06:36.147Z,2.63
2018-07-25T12:09:07.105Z,3.10
2018-07-25T12:11:39.640Z,2.80
2018-07-25T12:14:08.019Z,4.93
2018-07-25T12:16:36.437Z,4.20
2018-07-25T12:19:05.146Z,4.33
2018-07-25T12:21:33.552Z,2.60
2018-07-25T12:24:02.189Z,3.60
2018-07-25T12:26:30.604Z,3.90
2018-07-25T12:28:59.028Z,8.20
2018-07-25T12:31:27.412Z,4.40
2018-07-25T12:33:55.931Z,3.40
2018-07-25T12:36:24.326Z,2.70
2018-07-25T12:38:52.707Z,2.87
2018-07-25T12:41:21.074Z,4.07
2018-07-25T12:43:49.497Z,3.70
2018-07-25T12:46:18.111Z,4.17
2018-07-25T12:48:46.463Z,3.40
2018-07-25T12:51:14.869Z,4.00
2018-07-25T12:53:43.277Z,4.90
2018-07-25T12:56:11.560Z,5.23
2018-07-25T12:58:39.933Z,3.93
2018-07-25T13:01:08.320Z,4.37
2018-07-25T13:03:36.727Z,2.97
2018-07-25T13:06:05.305Z,4.00
2018-07-25T13:08:33.686Z,2.03
2018-07-25T13:11:02.037Z,2.93
2018-07-25T13:13:30.420Z,5.07
2018-07-25T13:15:58.828Z,3.60
2018-07-25T13:18:27.184Z,3.63
2018-07-25T13:20:55.566Z,3.03
2018-07-25T13:23:24.001Z,3.40
2018-07-25T13:25:52.347Z,3.77
2018-07-25T13:28:20.786Z,3.90
2018-07-25T13:30:49.079Z,4.83
2018-07-25T13:33:17.448Z,3.10
2018-07-25T13:35:45.797Z,3.40
2018-07-25T13:38:14.177Z,4.67
2018-07-25T13:40:42.517Z,2.80
2018-07-25T13:43:10.887Z,7.83
2018-07-25T13:45:39.353Z,2.77
2018-07-25T13:48:07.708Z,4.80
2018-07-25T13:50:36.068Z,3.57
2018-07-25T13:53:04.433Z,3.30
2018-07-25T13:55:32.779Z,2.57
2018-07-25T13:58:01.428Z,3.90
2018-07-25T14:00:29.773Z,5.57
2018-07-25T14:02:58.136Z,3.17
2018-07-25T14:05:26.504Z,3.17
2018-07-25T14:07:54.866Z,3.23
2018-07-25T14:10:23.532Z,4.57
2018-07-25T14:12:51.912Z,4.20
2018-07-25T14:15:20.275Z,2.90
2018-07-25T14:17:48.649Z,3.63
2018-07-25T14:20:16.978Z,3.07
2018-07-25T14:22:45.336Z,3.23
2018-07-25T14:25:13.697Z,5.47
2018-07-25T14:27:42.033Z,3.60
2018-07-25T14:30:10.456Z,5.13
2018-07-25T14:32:38.789Z,4.20
2018-07-25T14:35:07.155Z,4.87
2018-07-25T14:37:35.504Z,2.43
2018-07-25T14:40:03.991Z,6.43
2018-07-25T14:42:32.292Z,4.93
2018-07-25T14:45:00.648Z,3.83
2018-07-25T14:47:28.992Z,2.67
2018-07-25T14:49:57.316Z,2.43
2018-07-25T14:52:25.729Z,2.73
2018-07-25T14:54:54.010Z,2.23
2018-07-25T14:57:22.355Z,3.20
2018-07-25T14:59:50.914Z,2.50
2018-07-25T15:02:19.371Z,5.13
2018-07-25T15:04:47.713Z,1.97
2018-07-25T15:07:16.055Z,2.03
2018-07-25T15:09:44.402Z,3.67
2018-07-25T15:12:12.791Z,2.37
2018-07-25T15:14:41.182Z,4.77
2018-07-25T15:17:09.545Z,3.47
2018-07-25T15:19:37.915Z,2.80
2018-07-25T15:22:06.294Z,3.07
2018-07-25T15:24:34.645Z,2.50
2018-07-25T15:27:03.010Z,4.83
2018-07-25T15:29:31.458Z,5.23
2018-07-25T15:31:59.745Z,2.40
2018-07-25T15:34:28.129Z,5.10
2018-07-25T15:36:56.492Z,4.57
2018-07-25T15:39:25.917Z,2.93
2018-07-25T15:41:55.399Z,3.80
2018-07-25T15:44:24.799Z,6.60
2018-07-25T15:46:53.245Z,4.57
2018-07-25T15:49:21.613Z,4.17
2018-07-25T15:51:50.025Z,4.47
2018-07-25T15:54:18.491Z,2.60
2018-07-25T15:56:46.939Z,2.93
2018-07-25T15:59:15.279Z,5.77
2018-07-25T16:01:43.683Z,5.40
2018-07-25T16:04:12.043Z,3.00
2018-07-25T16:06:40.411Z,2.87
2018-07-25T16:09:10.336Z,4.10
2018-07-25T16:11:38.837Z,4.47
2018-07-25T16:14:07.317Z,3.17
2018-07-25T16:16:35.724Z,4.60
2018-07-25T16:19:04.088Z,3.57
2018-07-25T16:21:32.443Z,2.60
2018-07-25T16:24:00.864Z,2.57
2018-07-25T16:26:29.273Z,3.90
2018-07-25T16:28:57.652Z,3.53
2018-07-25T16:31:26.051Z,2.10
2018-07-25T16:33:54.484Z,4.60
2018-07-25T16:36:22.866Z,2.50
2018-07-25T16:38:51.224Z,3.70
2018-07-25T16:41:19.616Z,6.07
2018-07-25T16:43:48.028Z,5.17
2018-07-25T16:46:16.444Z,4.00
2018-07-25T16:48:44.816Z,5.93
2018-07-25T16:51:13.203Z,4.30
2018-07-25T16:53:41.582Z,6.27
2018-07-25T16:56:10.278Z,3.20
2018-07-25T16:58:38.667Z,4.07
2018-07-25T17:01:07.025Z,5.37
2018-07-25T17:03:35.418Z,2.90
2018-07-25T17:06:03.817Z,3.67
2018-07-25T17:08:32.248Z,4.27
2018-07-25T17:11:00.655Z,4.07
2018-07-25T17:13:29.059Z,8.50
2018-07-25T17:15:57.466Z,5.80
2018-07-25T17:18:25.818Z,6.43
2018-07-25T17:20:54.179Z,6.80
2018-07-25T17:23:22.575Z,5.37
2018-07-25T17:25:50.956Z,5.93
2018-07-25T17:28:19.360Z,2.57
2018-07-25T17:30:47.767Z,7.73
2018-07-25T17:33:16.974Z,3.40
2018-07-25T17:35:45.390Z,5.83
2018-07-25T17:38:14.141Z,3.77
2018-07-25T17:40:42.572Z,5.00
2018-07-25T17:43:10.920Z,5.47
2018-07-25T17:45:39.314Z,4.83
2018-07-25T17:48:07.774Z,5.40
2018-07-25T17:50:36.176Z,2.73
2018-07-25T17:53:04.620Z,4.23
2018-07-25T17:55:33.087Z,6.67
2018-07-25T17:58:01.693Z,4.43
2018-07-25T18:00:30.104Z,3.20
2018-07-25T18:02:58.484Z,7.40
2018-07-25T18:05:26.859Z,5.17
2018-07-25T18:07:55.203Z,4.43
2018-07-25T18:10:23.579Z,3.17
2018-07-25T18:12:56.095Z,4.83
2018-07-25T18:15:24.492Z,4.60
2018-07-25T18:17:52.874Z,7.83
2018-07-25T18:20:21.231Z,4.03
2018-07-25T18:22:49.634Z,6.47
2018-07-25T18:25:18.022Z,7.37
2018-07-25T18:27:46.387Z,10.70
2018-07-25T18:30:14.812Z,4.17
2018-07-25T18:32:43.196Z,3.73
2018-07-25T18:35:11.567Z,4.83
2018-07-25T18:37:40.215Z,5.03
2018-07-25T18:40:08.717Z,10.70
2018-07-25T18:42:37.087Z,7.63
2018-07-25T18:45:05.639Z,3.63
2018-07-25T18:47:34.024Z,6.00
2018-07-25T18:50:02.397Z,5.73
2018-07-25T18:52:30.732Z,5.17
2018-07-25T18:54:59.111Z,4.33
2018-07-25T18:57:27.569Z,3.77
2018-07-25T18:59:55.903Z,7.23
2018-07-25T19:02:24.267Z,8.70
2018-07-25T19:04:52.615Z,2.77
2018-07-25T19:07:21.028Z,7.33
2018-07-25T19:09:49.401Z,3.77
2018-07-25T19:12:17.778Z,5.00
2018-07-25T19:14:51.452Z,5.43
2018-07-25T19:17:19.802Z,4.83
2018-07-25T19:19:48.154Z,7.53
2018-07-25T19:22:16.515Z,6.77
2018-07-25T19:24:44.896Z,7.20
2018-07-25T19:27:13.243Z,7.83
2018-07-25T19:29:41.579Z,6.50
2018-07-25T19:32:09.957Z,7.43
2018-07-25T19:34:38.307Z,6.00
2018-07-25T19:37:06.661Z,5.47
2018-07-25T19:39:38.019Z,4.67
2018-07-25T19:42:08.035Z,4.77
2018-07-25T19:44:36.433Z,4.13
2018-07-25T19:47:04.841Z,6.50
2018-07-25T19:49:33.733Z,6.57
2018-07-25T19:52:02.552Z,6.93
2018-07-25T19:54:31.207Z,4.03
2018-07-25T19:56:59.544Z,5.47
2018-07-25T19:59:27.993Z,7.57
2018-07-25T20:01:56.344Z,5.07
2018-07-25T20:04:24.708Z,5.90
2018-07-25T20:06:53.130Z,5.43
2018-07-25T20:09:21.495Z,6.50
2018-07-25T20:11:50.141Z,7.50
2018-07-25T20:14:23.862Z,3.73
2018-07-25T20:16:52.270Z,6.17
2018-07-25T20:19:20.588Z,5.37
2018-07-25T20:21:48.932Z,3.10
2018-07-25T20:24:17.362Z,4.00
2018-07-25T20:26:45.664Z,5.83
2018-07-25T20:29:14.013Z,4.90
2018-07-25T20:31:42.394Z,4.20
2018-07-25T20:34:10.761Z,6.93
2018-07-25T20:36:39.093Z,5.63
2018-07-25T20:39:10.268Z,4.53
2018-07-25T20:41:38.629Z,9.13
2018-07-25T20:44:07.050Z,4.23
2018-07-25T20:46:35.480Z,8.97
2018-07-25T20:49:03.941Z,3.63
2018-07-25T20:51:32.292Z,7.13
2018-07-25T20:54:00.657Z,5.70
2018-07-25T20:56:29.019Z,5.10
2018-07-25T20:58:57.430Z,7.70
2018-07-25T21:01:25.797Z,5.47
2018-07-25T21:03:54.584Z,4.80
2018-07-25T21:06:22.919Z,4.37
2018-07-25T21:08:51.267Z,5.70
2018-07-25T21:11:19.711Z,4.70
2018-07-25T21:13:48.186Z,4.40
2018-07-25T21:16:16.521Z,5.63
2018-07-25T21:18:44.900Z,5.57
2018-07-25T21:21:13.287Z,7.70
2018-07-25T21:23:41.701Z,6.37
2018-07-25T21:26:10.108Z,4.93
2018-07-25T21:28:38.463Z,5.20
2018-07-25T21:31:06.829Z,6.77
2018-07-25T21:33:35.319Z,4.50
2018-07-25T21:36:03.657Z,6.63
2018-07-25T21:38:32.001Z,5.87
2018-07-25T21:41:00.349Z,5.67
2018-07-25T21:43:28.708Z,5.40
2018-07-25T21:45:57.035Z,4.30
2018-07-25T21:48:25.395Z,6.33
2018-07-25T21:50:54.145Z,4.47
2018-07-25T21:53:22.460Z,4.27
2018-07-25T21:55:50.905Z,4.73
2018-07-25T21:58:19.348Z,8.70
2018-07-25T22:00:52.965Z,5.13
2018-07-25T22:03:21.312Z,3.57
2018-07-25T22:05:49.632Z,6.63
2018-07-25T22:08:17.942Z,5.87
2018-07-25T22:10:46.293Z,3.50
2018-07-25T22:13:14.618Z,5.60
2018-07-25T22:15:42.954Z,5.53
2018-07-25T22:18:11.276Z,7.00
2018-07-25T22:20:39.600Z,6.60
2018-07-25T22:23:07.936Z,5.23
2018-07-25T22:25:36.265Z,7.97
2018-07-25T22:28:04.612Z,4.83
2018-07-25T22:30:32.969Z,4.90
2018-07-25T22:33:01.307Z,6.70
2018-07-25T22:35:29.623Z,5.13
2018-07-25T22:37:57.933Z,3.83
2018-07-25T22:40:26.260Z,6.33
2018-07-25T22:42:54.853Z,6.70
2018-07-25T22:45:23.193Z,5.23
2018-07-25T22:47:51.514Z,4.93
2018-07-25T22:50:19.840Z,4.57
2018-07-25T22:52:48.152Z,6.83
2018-07-25T22:55:16.459Z,6.73
2018-07-25T22:57:44.809Z,6.50
2018-07-25T23:00:13.139Z,7.67
2018-07-25T23:02:41.470Z,6.43
2018-07-25T23:05:09.880Z,9.30
2018-07-25T23:07:38.203Z,6.37
2018-07-25T23:10:06.564Z,5.50
2018-07-25T23:12:34.946Z,9.43
2018-07-25T23:15:03.301Z,5.17
2018-07-25T23:17:31.634Z,5.03
2018-07-25T23:19:59.985Z,6.30
2018-07-25T23:22:28.313Z,6.57
2018-07-25T23:24:56.642Z,5.40
2018-07-25T23:27:24.985Z,5.27
2018-07-25T23:29:53.326Z,7.00
2018-07-25T23:32:21.660Z,4.03
2018-07-25T23:34:49.981Z,6.87
2018-07-25T23:37:18.299Z,5.70
2018-07-25T23:39:46.636Z,6.30
2018-07-25T23:42:14.963Z,7.47
2018-07-25T23:44:43.306Z,5.87
2018-07-25T23:47:11.670Z,6.17
2018-07-25T23:49:39.992Z,6.20
2018-07-25T23:52:08.430Z,5.40
2018-07-25T23:54:36.743Z,7.73
2018-07-25T23:57:05.132Z,5.93
2018-07-25T23:59:33.463Z,7.77
